Energy Champion — MJUZ7 — position and weather

sailwx.info

Track history (hours):
 
Tides and Currents Weather Stations Pressure Air Temp Water Temp Dewpoint Dewpoint Depression Visibility Wind Speed Wind Dir Waves Ship Positions

Energy Champion

Last reported at 2014-Sep-20 17:31 UTC. Time now 2014-Sep-20 18:04 UTC.
Position N 43°25' E 004°53'.

Length 228 m; draft 9.1 m.

Type: Tanker. MMSI: 235009420.

Date/timePositionNaut miles runAvg speedWind from/ knotsBaromVisibWave heightAir tempDewpointWater temp
2014-Sep-20 17:31N 43°25' E 004°53'0 0.0
2014-Sep-20 16:31N 43°25' E 004°53'0 0.0
2014-Sep-20 15:31N 43°25' E 004°53'0 0.0
2014-Sep-20 14:28N 43°25' E 004°53'0 0.0
2014-Sep-20 13:28N 43°25' E 004°53'0 0.0
2014-Sep-20 12:28N 43°25' E 004°53'0 0.0
2014-Sep-20 11:28N 43°25' E 004°53'0 0.0
2014-Sep-20 10:28N 43°25' E 004°53'0 0.0
2014-Sep-20 09:22N 43°25' E 004°53'0 0.0
2014-Sep-20 08:25N 43°25' E 004°53'0 0.0
2014-Sep-20 07:33N 43°25' E 004°53'1 1.5
2014-Sep-20 06:33N 43°24' E 004°55'7 6.9
2014-Sep-20 05:33N 43°18' E 004°60'8 8.3
2014-Sep-20 04:33N 43°10' E 005°03'1211.8
2014-Sep-20 03:32N 42°58' E 004°60'2412.0
2014-Sep-20 01:30N 42°39' E 004°39'3812.2
2014-Sep-19 22:22N 42°09' E 004°07'1012.6
2014-Sep-19 21:33N 42°01' E 003°58'1312.8
2014-Sep-19 20:30N 41°51' E 003°47'1212.2
2014-Sep-19 19:33N 41°41' E 003°37'1410.1
2014-Sep-19 18:12N 41°31' E 003°26'1011.6
2014-Sep-19 17:21N 41°23' E 003°17'1112.6
2014-Sep-19 16:28N 41°14' E 003°08'1213.2
2014-Sep-19 15:33N 41°05' E 002°58'1413.5
2014-Sep-19 14:33N 40°54' E 002°47'1313.4
2014-Sep-19 13:33N 40°44' E 002°36'1313.5
2014-Sep-19 12:33N 40°34' E 002°25'1413.3
2014-Sep-19 11:31N 40°23' E 002°13'1313.8
2014-Sep-19 10:34N 40°13' E 002°03'1413.5
2014-Sep-19 09:33N 40°02' E 001°52'1513.0
2014-Sep-19 08:22N 39°50' E 001°39'1513.0
2014-Sep-19 07:13N 39°39' E 001°27'15512.9
2014-Sep-18 19:09N 37°29' W 000°22'2112.8
2014-Sep-18 17:29N 37°15' W 000°43'1313.3
2014-Sep-18 16:30N 37°06' W 000°55'22513.3
2014-Sep-17 23:33N 35°59' W 005°22'  
Track history (hours):
 
Tides and Currents Weather Stations Pressure Air Temp Water Temp Dewpoint Dewpoint Depression Visibility Wind Speed Wind Dir Waves Ship Positions

Energy Champion

Last reported at 2014-Sep-20 17:31 UTC. Time now 2014-Sep-20 18:04 UTC.
Position N 43°25' E 004°53'.

Length 228 m; draft 9.1 m.

Type: Tanker. MMSI: 235009420.

Date/timePositionNaut miles runAvg speedWind from/ knotsBaromVisibWave heightAir tempDewpointWater temp
2014-Sep-20 17:31N 43°25' E 004°53'0 0.0
2014-Sep-20 16:31N 43°25' E 004°53'0 0.0
2014-Sep-20 15:31N 43°25' E 004°53'0 0.0
2014-Sep-20 14:28N 43°25' E 004°53'0 0.0
2014-Sep-20 13:28N 43°25' E 004°53'0 0.0
2014-Sep-20 12:28N 43°25' E 004°53'0 0.0
2014-Sep-20 11:28N 43°25' E 004°53'0 0.0
2014-Sep-20 10:28N 43°25' E 004°53'0 0.0
2014-Sep-20 09:22N 43°25' E 004°53'0 0.0
2014-Sep-20 08:25N 43°25' E 004°53'0 0.0
2014-Sep-20 07:33N 43°25' E 004°53'1 1.5
2014-Sep-20 06:33N 43°24' E 004°55'7 6.9
2014-Sep-20 05:33N 43°18' E 004°60'8 8.3
2014-Sep-20 04:33N 43°10' E 005°03'1211.8
2014-Sep-20 03:32N 42°58' E 004°60'2412.0
2014-Sep-20 01:30N 42°39' E 004°39'3812.2
2014-Sep-19 22:22N 42°09' E 004°07'1012.6
2014-Sep-19 21:33N 42°01' E 003°58'1312.8
2014-Sep-19 20:30N 41°51' E 003°47'1212.2
2014-Sep-19 19:33N 41°41' E 003°37'1410.1
2014-Sep-19 18:12N 41°31' E 003°26'1011.6
2014-Sep-19 17:21N 41°23' E 003°17'1112.6
2014-Sep-19 16:28N 41°14' E 003°08'1213.2
2014-Sep-19 15:33N 41°05' E 002°58'1413.5
2014-Sep-19 14:33N 40°54' E 002°47'1313.4
2014-Sep-19 13:33N 40°44' E 002°36'1313.5
2014-Sep-19 12:33N 40°34' E 002°25'1413.3
2014-Sep-19 11:31N 40°23' E 002°13'1313.8
2014-Sep-19 10:34N 40°13' E 002°03'1413.5
2014-Sep-19 09:33N 40°02' E 001°52'1513.0
2014-Sep-19 08:22N 39°50' E 001°39'1513.0
2014-Sep-19 07:13N 39°39' E 001°27'15512.9
2014-Sep-18 19:09N 37°29' W 000°22'2112.8
2014-Sep-18 17:29N 37°15' W 000°43'1313.3
2014-Sep-18 16:30N 37°06' W 000°55'22513.3
2014-Sep-17 23:33N 35°59' W 005°22'  

Dump ship's entire track history